Time;durP1;ratioP1;P1;durP2;ratioP2;P2;SDS_P1;SDS_P2;PMS_P1;PMS_P2;Temp;Humidity;BMP_temperature;BMP_pressure;BME280_temperature;BME280_humidity;BME280_pressure;Samples;Min_cycle;Max_cycle;Signal;HPM_P1;HPM_P2
2022/03/15 00:01:21;;;;;;;36.80;21.63;;;1.50;99.90;;;;;;5052326;28;20040;-57
2022/03/15 00:03:48;;;;;;;30.83;20.60;;;1.40;99.90;;;;;;5052497;28;20536;-58
2022/03/15 00:06:15;;;;;;;39.40;24.80;;;1.40;99.90;;;;;;5051288;28;20017;-58
2022/03/15 00:08:41;;;;;;;34.72;22.63;;;1.40;99.90;;;;;;5052523;28;20021;-55
2022/03/15 00:11:08;;;;;;;40.95;25.30;;;1.30;99.90;;;;;;5052595;28;20359;-55
2022/03/15 00:13:35;;;;;;;35.40;23.58;;;1.20;99.90;;;;;;5052323;28;20048;-58
2022/03/15 00:16:02;;;;;;;33.20;23.42;;;1.20;99.90;;;;;;5052578;28;20013;-54
2022/03/15 00:18:31;;;;;;;40.15;24.65;;;1.30;99.90;;;;;;5052668;28;20107;-57
2022/03/15 00:21:04;;;;;;;42.47;26.15;;;1.30;99.90;;;;;;5052436;28;20035;-56
2022/03/15 00:23:31;;;;;;;;;;;1.30;99.90;;;;;;5052909;28;20493;-55
2022/03/15 00:25:59;;;;;;;35.90;23.75;;;1.30;99.90;;;;;;5051945;28;19908;-54
2022/03/15 00:28:25;;;;;;;35.65;23.38;;;1.20;99.90;;;;;;5052105;28;20029;-55
2022/03/15 00:30:52;;;;;;;37.28;23.98;;;1.20;99.90;;;;;;5051850;28;20059;-56
2022/03/15 00:33:18;;;;;;;36.03;23.95;;;1.30;99.90;;;;;;5051895;28;20056;-58
2022/03/15 00:35:44;;;;;;;32.08;23.05;;;1.30;99.90;;;;;;5050453;28;20487;-53
2022/03/15 00:38:10;;;;;;;38.17;23.83;;;1.30;99.90;;;;;;5051908;28;20052;-52
2022/03/15 00:40:36;;;;;;;34.30;23.38;;;1.40;99.90;;;;;;5050138;28;20029;-55
2022/03/15 00:43:02;;;;;;;36.90;22.88;;;1.40;99.90;;;;;;5050383;28;20028;-57
2022/03/15 00:45:28;;;;;;;32.90;22.38;;;1.40;99.90;;;;;;5051931;28;20103;-59
2022/03/15 00:47:56;;;;;;;34.30;23.30;;;1.40;99.90;;;;;;5051874;28;20129;-56
2022/03/15 00:50:23;;;;;;;29.90;21.85;;;1.40;99.90;;;;;;5052017;28;20071;-58
2022/03/15 00:52:50;;;;;;;40.25;23.90;;;1.30;99.90;;;;;;5051764;28;20025;-52
2022/03/15 00:55:16;;;;;;;39.92;22.98;;;1.40;99.90;;;;;;5051950;28;20060;-55
2022/03/15 00:57:42;;;;;;;34.25;22.60;;;1.40;99.90;;;;;;5050441;28;20057;-54
2022/03/15 01:00:11;;;;;;;41.33;23.17;;;1.40;99.90;;;;;;5051832;28;20017;-53
2022/03/15 01:02:37;;;;;;;32.75;22.42;;;1.40;99.90;;;;;;5051723;28;20113;-56
2022/03/15 01:05:04;;;;;;;34.38;21.77;;;1.40;99.90;;;;;;5051714;28;20116;-59
2022/03/15 01:07:30;;;;;;;33.72;22.73;;;1.30;99.90;;;;;;5051659;28;20561;-57
2022/03/15 01:09:55;;;;;;;44.42;25.20;;;1.40;99.90;;;;;;5051599;28;20029;-57
2022/03/15 01:12:21;;;;;;;57.53;33.22;;;1.40;99.90;;;;;;5051040;28;20082;-56
2022/03/15 01:14:47;;;;;;;57.90;33.30;;;1.30;99.90;;;;;;5051552;28;20032;-56
2022/03/15 01:17:13;;;;;;;66.72;34.67;;;1.40;99.90;;;;;;5051643;28;20231;-55
2022/03/15 01:19:40;;;;;;;53.83;30.70;;;1.40;99.90;;;;;;5051568;28;20029;-57
2022/03/15 01:22:05;;;;;;;56.17;31.00;;;1.50;99.90;;;;;;5051676;28;20500;-58
2022/03/15 01:24:31;;;;;;;49.30;28.23;;;1.50;99.90;;;;;;5051444;28;20029;-58
2022/03/15 01:26:57;;;;;;;41.42;24.98;;;1.50;99.90;;;;;;5051671;28;20125;-57
2022/03/15 01:29:26;;;;;;;43.30;25.58;;;1.60;99.90;;;;;;5051489;28;20035;-58
2022/03/15 01:31:54;;;;;;;42.35;26.30;;;1.60;99.90;;;;;;5051309;28;20029;-58
2022/03/15 01:34:20;;;;;;;38.90;25.92;;;1.60;99.90;;;;;;5051448;28;20128;-58
2022/03/15 01:36:46;;;;;;;43.22;28.30;;;1.60;99.90;;;;;;5051322;28;20611;-59
2022/03/15 01:39:12;;;;;;;55.28;30.88;;;1.60;99.90;;;;;;5051205;28;20057;-55
2022/03/15 01:41:39;;;;;;;55.88;30.58;;;1.60;99.90;;;;;;5051277;28;20060;-58
2022/03/15 01:44:14;;;;;;;47.63;30.00;;;1.60;99.90;;;;;;5051326;28;20028;-56
2022/03/15 01:46:39;;;;;;;45.78;25.58;;;1.60;99.90;;;;;;5051291;28;20019;-56
2022/03/15 01:49:05;;;;;;;36.75;24.98;;;1.60;99.90;;;;;;5051356;28;20095;-57
2022/03/15 01:51:31;;;;;;;45.22;26.80;;;1.60;99.90;;;;;;5050954;28;20057;-59
2022/03/15 01:53:56;;;;;;;59.55;36.05;;;1.60;99.90;;;;;;5050792;28;20464;-56
2022/03/15 01:56:23;;;;;;;73.43;39.00;;;1.50;99.90;;;;;;5050346;28;20021;-55
2022/03/15 01:58:49;;;;;;;63.97;35.42;;;1.50;99.90;;;;;;5050173;28;20021;-56
2022/03/15 02:01:15;;;;;;;69.60;38.67;;;1.60;99.90;;;;;;5049961;28;20116;-53
2022/03/15 02:03:40;;;;;;;48.20;29.83;;;1.60;99.90;;;;;;5050428;28;20025;-55
2022/03/15 02:06:09;;;;;;;48.63;28.75;;;1.70;99.90;;;;;;5050851;28;20052;-56
2022/03/15 02:08:35;;;;;;;43.97;26.98;;;1.60;99.90;;;;;;5050462;28;20026;-57
2022/03/15 02:11:01;;;;;;;39.25;26.42;;;1.60;99.90;;;;;;5050535;28;20112;-58
2022/03/15 02:13:28;;;;;;;44.50;28.17;;;1.60;99.90;;;;;;5049905;28;20045;-56
2022/03/15 02:15:54;;;;;;;39.88;25.80;;;1.60;99.90;;;;;;5050453;28;20025;-56
2022/03/15 02:18:23;;;;;;;43.50;26.17;;;1.60;99.90;;;;;;5049152;28;20075;-58
2022/03/15 02:20:49;;;;;;;42.03;24.88;;;1.60;99.90;;;;;;5050125;28;20057;-58
2022/03/15 02:23:16;;;;;;;41.38;23.73;;;1.60;99.90;;;;;;5050480;28;20379;-54
2022/03/15 02:25:48;;;;;;;37.08;23.75;;;1.60;99.90;;;;;;5053251;28;20017;-57
2022/03/15 02:28:13;;;;;;;35.35;20.90;;;1.60;99.90;;;;;;5054395;28;20364;-58
2022/03/15 02:30:39;;;;;;;34.83;21.27;;;1.60;99.90;;;;;;5054199;28;20079;-57
2022/03/15 02:33:05;;;;;;;35.70;22.05;;;1.50;99.90;;;;;;5054756;28;20522;-55
2022/03/15 02:35:30;;;;;;;30.08;19.90;;;1.60;99.90;;;;;;5054280;28;20025;-58
2022/03/15 02:37:56;;;;;;;29.50;19.83;;;1.50;99.90;;;;;;5054302;28;20037;-56
2022/03/15 02:40:22;;;;;;;39.70;22.48;;;1.50;99.90;;;;;;5054092;28;20029;-59
2022/03/15 02:42:48;;;;;;;36.08;22.17;;;1.50;99.90;;;;;;5054241;28;20032;-56
2022/03/15 02:45:14;;;;;;;39.50;23.45;;;1.50;99.90;;;;;;5054361;28;20047;-58
2022/03/15 02:47:43;;;;;;;28.75;20.35;;;1.50;99.90;;;;;;5054238;28;20029;-55
2022/03/15 02:50:09;;;;;;;29.85;18.38;;;1.50;99.90;;;;;;5054260;28;20025;-56
2022/03/15 02:52:35;;;;;;;26.70;18.23;;;1.50;99.90;;;;;;5052526;28;20024;-55
2022/03/15 02:55:00;;;;;;;27.00;17.08;;;1.40;99.90;;;;;;5053795;28;20109;-58
2022/03/15 02:57:27;;;;;;;24.65;16.33;;;1.50;99.90;;;;;;5054025;28;20025;-57
2022/03/15 03:00:02;;;;;;;20.95;15.77;;;1.60;99.90;;;;;;5053313;28;20029;-58
2022/03/15 03:02:28;;;;;;;21.75;14.98;;;1.80;99.90;;;;;;5053445;28;20060;-57
2022/03/15 03:04:54;;;;;;;22.92;15.05;;;1.90;99.90;;;;;;5053676;28;20483;-55
2022/03/15 03:07:19;;;;;;;18.45;12.90;;;2.00;99.90;;;;;;5052810;28;20539;-57
2022/03/15 03:09:46;;;;;;;17.30;13.18;;;2.10;99.90;;;;;;5052464;28;20032;-59
2022/03/15 03:12:15;;;;;;;20.05;13.30;;;2.10;99.90;;;;;;5052460;28;20075;-56
2022/03/15 03:14:41;;;;;;;21.25;12.68;;;2.30;99.90;;;;;;5050991;28;20496;-59
2022/03/15 03:17:07;;;;;;;15.82;11.88;;;2.40;99.90;;;;;;5052022;28;20040;-54
2022/03/15 03:19:38;;;;;;;15.90;12.65;;;2.50;99.90;;;;;;5052640;28;20029;-51
2022/03/15 03:22:05;;;;;;;20.02;13.32;;;2.60;99.90;;;;;;5052721;28;20501;-53
2022/03/15 03:24:31;;;;;;;20.25;11.77;;;2.60;99.90;;;;;;5052695;28;20056;-55
2022/03/15 03:26:56;;;;;;;18.08;12.32;;;2.70;99.90;;;;;;5052952;28;20063;-56
2022/03/15 03:29:22;;;;;;;17.55;11.98;;;2.70;99.90;;;;;;5053500;28;20063;-53
2022/03/15 03:31:49;;;;;;;18.52;12.43;;;2.70;99.90;;;;;;5053390;28;20025;-51
2022/03/15 03:34:15;;;;;;;19.85;12.88;;;2.70;99.90;;;;;;5053433;28;20017;-56
2022/03/15 03:36:41;;;;;;;19.05;13.85;;;2.70;99.90;;;;;;5052769;28;20078;-53
2022/03/15 03:39:07;;;;;;;23.20;14.38;;;2.70;99.90;;;;;;5053440;28;20059;-58
2022/03/15 03:41:34;;;;;;;18.90;13.32;;;2.80;99.90;;;;;;5053164;28;20033;-54
2022/03/15 03:44:00;;;;;;;25.58;15.23;;;2.70;99.90;;;;;;5053469;28;20021;-53
2022/03/15 03:46:27;;;;;;;29.65;17.08;;;2.70;99.90;;;;;;5051907;28;20682;-55
2022/03/15 03:48:54;;;;;;;27.52;15.07;;;2.70;99.90;;;;;;5052817;28;20033;-54
2022/03/15 03:51:20;;;;;;;29.63;17.45;;;2.60;99.90;;;;;;5053050;28;20032;-51
2022/03/15 03:53:46;;;;;;;23.88;15.32;;;2.60;99.90;;;;;;5052887;28;20025;-54
2022/03/15 03:56:11;;;;;;;25.58;16.75;;;2.50;99.90;;;;;;5051789;28;20348;-55
2022/03/15 03:58:37;;;;;;;26.42;16.27;;;2.50;99.90;;;;;;5052825;28;20021;-55
2022/03/15 04:01:04;;;;;;;21.23;14.60;;;2.50;99.90;;;;;;5052589;28;20116;-57
2022/03/15 04:03:31;;;;;;;21.85;13.93;;;2.60;99.90;;;;;;5052714;28;20029;-57
2022/03/15 04:05:57;;;;;;;21.48;14.45;;;2.60;99.90;;;;;;5052695;28;20021;-55
2022/03/15 04:08:24;;;;;;;22.23;15.43;;;2.60;99.90;;;;;;5052747;28;20048;-56
2022/03/15 04:10:50;;;;;;;24.55;16.00;;;2.50;99.90;;;;;;5052629;28;20040;-56
2022/03/15 04:13:18;;;;;;;27.83;18.55;;;2.40;99.90;;;;;;5052366;28;20044;-55
2022/03/15 04:15:45;;;;;;;27.40;19.67;;;2.30;99.90;;;;;;5052391;28;20500;-52
2022/03/15 04:18:12;;;;;;;28.13;19.88;;;2.20;99.90;;;;;;5052534;28;20476;-57
2022/03/15 04:20:38;;;;;;;31.25;19.00;;;2.10;99.90;;;;;;5052167;28;20029;-55
2022/03/15 04:23:04;;;;;;;28.48;20.10;;;2.00;99.90;;;;;;5052492;28;20099;-56
2022/03/15 04:25:30;;;;;;;33.08;20.83;;;1.90;99.90;;;;;;5052249;28;20061;-54
2022/03/15 04:28:00;;;;;;;25.63;19.45;;;1.90;99.90;;;;;;5052360;28;20025;-54
2022/03/15 04:30:26;;;;;;;36.00;20.40;;;1.90;99.90;;;;;;5052392;28;20032;-53
2022/03/15 04:32:52;;;;;;;31.75;20.02;;;2.00;99.90;;;;;;5052132;28;20381;-57
2022/03/15 04:35:18;;;;;;;32.92;19.20;;;2.00;99.90;;;;;;5052332;28;20039;-57
2022/03/15 04:37:44;;;;;;;28.05;19.08;;;2.10;99.90;;;;;;5052235;28;20029;-54
2022/03/15 04:40:10;;;;;;;29.92;20.55;;;2.10;99.90;;;;;;5052110;28;20024;-56
2022/03/15 04:42:36;;;;;;;57.50;35.92;;;2.10;99.90;;;;;;5050732;28;20464;-57
2022/03/15 04:45:02;;;;;;;33.60;23.88;;;2.10;99.90;;;;;;5052081;28;20032;-57
2022/03/15 04:47:27;;;;;;;34.15;21.92;;;2.10;99.90;;;;;;5049887;28;20060;-56
2022/03/15 04:49:53;;;;;;;31.83;20.60;;;2.10;99.90;;;;;;5051831;28;20028;-53
2022/03/15 04:52:19;;;;;;;30.25;20.75;;;2.00;99.90;;;;;;5052125;28;20024;-52
2022/03/15 04:54:45;;;;;;;32.35;22.15;;;1.90;99.90;;;;;;5051744;28;20107;-53
2022/03/15 04:57:11;;;;;;;48.63;29.40;;;1.90;99.90;;;;;;5052049;28;20021;-57
2022/03/15 04:59:37;;;;;;;53.58;33.05;;;1.90;99.90;;;;;;5051667;28;20124;-55
2022/03/15 05:02:03;;;;;;;49.47;31.42;;;1.90;99.90;;;;;;5051690;28;20017;-54
2022/03/15 05:04:29;;;;;;;42.08;27.17;;;2.00;99.90;;;;;;5051717;28;20028;-56
2022/03/15 05:06:54;;;;;;;43.92;27.75;;;2.10;99.90;;;;;;5051688;28;20116;-58
2022/03/15 05:09:20;;;;;;;43.58;29.40;;;2.20;99.90;;;;;;5050377;28;20006;-54
2022/03/15 05:11:49;;;;;;;48.38;30.60;;;2.30;99.90;;;;;;5051582;28;20108;-54
2022/03/15 05:14:15;;;;;;;42.92;30.52;;;2.40;99.90;;;;;;5051462;28;20052;-57
2022/03/15 05:16:41;;;;;;;49.08;30.50;;;2.50;99.90;;;;;;5051280;28;20032;-55
2022/03/15 05:19:07;;;;;;;40.42;26.33;;;2.50;99.90;;;;;;5051707;28;20473;-57
2022/03/15 05:21:32;;;;;;;48.75;29.30;;;2.60;99.90;;;;;;5051384;28;20142;-57
2022/03/15 05:23:58;;;;;;;45.28;25.75;;;2.60;99.90;;;;;;5050165;28;20025;-58
2022/03/15 05:26:24;;;;;;;35.50;25.02;;;2.60;99.90;;;;;;5051390;28;20025;-56
2022/03/15 05:28:50;;;;;;;36.85;25.63;;;2.60;99.90;;;;;;5049968;28;20025;-58
2022/03/15 05:31:17;;;;;;;44.33;27.05;;;2.70;99.90;;;;;;5051310;28;20032;-57
2022/03/15 05:33:43;;;;;;;40.92;27.65;;;2.70;99.90;;;;;;5051228;28;20036;-52
2022/03/15 05:36:09;;;;;;;51.30;31.60;;;2.70;99.90;;;;;;5050083;28;20024;-57
2022/03/15 05:38:35;;;;;;;30.10;22.95;;;2.80;99.90;;;;;;5051137;28;20028;-57
2022/03/15 05:41:01;;;;;;;30.98;21.90;;;2.80;99.90;;;;;;5049958;28;20056;-57
2022/03/15 05:43:27;;;;;;;35.13;24.08;;;2.70;99.90;;;;;;5051315;28;20028;-56
2022/03/15 05:45:53;;;;;;;28.60;20.52;;;2.60;99.90;;;;;;5050788;28;20024;-53
2022/03/15 05:48:19;;;;;;;30.75;21.85;;;2.50;99.90;;;;;;5051104;28;20029;-55
2022/03/15 05:50:45;;;;;;;35.75;27.83;;;2.50;99.90;;;;;;5050931;28;20025;-58
2022/03/15 05:53:11;;;;;;;35.05;23.77;;;2.50;99.90;;;;;;5051160;28;20035;-56
2022/03/15 05:55:37;;;;;;;30.92;23.08;;;2.50;99.90;;;;;;5061422;28;20387;-56
2022/03/15 05:58:03;;;;;;;33.45;22.90;;;2.70;99.90;;;;;;5060874;28;20029;-57
2022/03/15 06:00:32;;;;;;;33.28;24.55;;;2.60;99.90;;;;;;5071318;28;20600;-54
2022/03/15 06:02:58;;;;;;;36.35;23.05;;;2.70;99.90;;;;;;5074883;28;20074;-53
2022/03/15 06:05:23;;;;;;;36.63;24.23;;;2.80;99.90;;;;;;5074260;28;20668;-53
2022/03/15 06:07:52;;;;;;;31.17;21.52;;;2.80;99.90;;;;;;5058365;28;20025;-56
2022/03/15 06:10:23;;;;;;;44.60;23.33;;;2.80;99.90;;;;;;5054917;28;20112;-54
2022/03/15 06:12:50;;;;;;;32.97;22.73;;;2.80;99.90;;;;;;5054432;28;20037;-55
2022/03/15 06:15:16;;;;;;;35.90;23.38;;;2.80;99.90;;;;;;5054700;28;20041;-55
2022/03/15 06:17:56;;;;;;;30.58;20.00;;;2.90;99.90;;;;;;5054784;28;20027;-53
2022/03/15 06:20:23;;;;;;;32.65;20.73;;;3.00;99.90;;;;;;5054406;28;20033;-51
2022/03/15 06:22:49;;;;;;;29.05;21.77;;;2.90;99.90;;;;;;5054836;28;20799;-56
2022/03/15 06:25:15;;;;;;;107.78;47.88;;;2.80;99.90;;;;;;5054472;28;20021;-55
2022/03/15 06:27:42;;;;;;;56.58;31.25;;;2.70;99.90;;;;;;5054330;28;20036;-53
2022/03/15 06:30:08;;;;;;;32.13;19.65;;;2.80;99.90;;;;;;5054311;28;20075;-53
2022/03/15 06:32:34;;;;;;;36.53;21.33;;;2.90;99.90;;;;;;5054456;28;20025;-52
2022/03/15 06:35:06;;;;;;;30.92;22.20;;;3.00;99.90;;;;;;5054626;28;20032;-56
2022/03/15 06:37:32;;;;;;;56.95;33.03;;;3.00;99.90;;;;;;5054381;28;20377;-55
2022/03/15 06:39:58;;;;;;;48.28;27.13;;;3.00;99.90;;;;;;5054341;28;20025;-55
2022/03/15 06:42:23;;;;;;;37.28;22.30;;;3.10;99.90;;;;;;5054268;28;20439;-54
2022/03/15 06:44:49;;;;;;;39.65;21.40;;;3.20;99.90;;;;;;5054039;28;20036;-56
2022/03/15 06:47:15;;;;;;;65.85;33.53;;;3.30;99.90;;;;;;5062611;28;20025;-57
2022/03/15 06:49:41;;;;;;;38.30;23.30;;;3.30;99.90;;;;;;5073837;28;20028;-55
2022/03/15 06:52:08;;;;;;;45.85;24.67;;;3.40;99.90;;;;;;5074127;28;20158;-52
2022/03/15 06:54:34;;;;;;;40.60;28.92;;;3.70;99.90;;;;;;5073956;28;20028;-52
2022/03/15 06:57:00;;;;;;;46.78;32.85;;;3.90;99.90;;;;;;5073670;28;20035;-51
2022/03/15 06:59:25;;;;;;;41.15;25.90;;;3.90;99.90;;;;;;5073963;28;20032;-52
2022/03/15 07:01:51;;;;;;;28.90;21.02;;;3.80;99.90;;;;;;5073910;28;20028;-56
2022/03/15 07:04:19;;;;;;;35.67;21.45;;;3.90;99.90;;;;;;5074010;28;20056;-52
2022/03/15 07:06:45;;;;;;;39.28;25.00;;;3.90;99.90;;;;;;5073783;28;20032;-56
2022/03/15 07:09:11;;;;;;;42.63;28.08;;;4.00;99.90;;;;;;5073811;28;20024;-56
2022/03/15 07:11:38;;;;;;;44.97;23.42;;;4.10;99.90;;;;;;5072666;28;20037;-53
2022/03/15 07:14:04;;;;;;;36.50;24.15;;;4.10;99.90;;;;;;5073663;28;20537;-54
2022/03/15 07:16:30;;;;;;;44.22;25.88;;;4.30;99.90;;;;;;5073175;28;20020;-55
2022/03/15 07:18:56;;;;;;;38.67;24.88;;;4.40;99.90;;;;;;5073534;28;20682;-51
2022/03/15 07:21:22;;;;;;;35.75;23.08;;;4.50;99.90;;;;;;5072292;28;20047;-56
2022/03/15 07:23:48;;;;;;;32.47;23.30;;;4.70;99.90;;;;;;5073509;28;20024;-50
2022/03/15 07:26:13;;;;;;;38.30;23.30;;;5.00;99.90;;;;;;5073419;28;20028;-54
2022/03/15 07:28:39;;;;;;;29.30;20.65;;;5.10;99.90;;;;;;5073295;28;20028;-52
2022/03/15 07:31:05;;;;;;;30.30;21.83;;;5.40;99.90;;;;;;5073466;28;20024;-54
2022/03/15 07:33:31;;;;;;;33.45;22.60;;;5.50;99.90;;;;;;5073361;28;20025;-53
2022/03/15 07:35:59;;;;;;;40.50;22.63;;;5.50;99.90;;;;;;5073272;28;20017;-54
2022/03/15 07:38:25;;;;;;;35.90;22.40;;;5.40;99.90;;;;;;5073255;28;20029;-57
2022/03/15 07:40:52;;;;;;;46.88;21.25;;;5.50;99.90;;;;;;5072890;28;20017;-53
2022/03/15 07:43:19;;;;;;;41.78;24.40;;;5.60;99.90;;;;;;5071852;28;20020;-54
2022/03/15 07:45:45;;;;;;;34.83;22.40;;;5.60;99.90;;;;;;5073115;28;20380;-53
2022/03/15 07:48:11;;;;;;;37.47;20.77;;;5.90;99.90;;;;;;5073195;28;20024;-57
2022/03/15 07:50:36;;;;;;;31.42;20.17;;;6.10;99.90;;;;;;5073001;28;20036;-53
2022/03/15 07:53:03;;;;;;;28.27;21.02;;;6.50;99.90;;;;;;5072997;28;20036;-52
2022/03/15 07:55:28;;;;;;;34.88;22.15;;;6.80;99.90;;;;;;5073133;28;20028;-55
2022/03/15 07:57:54;;;;;;;28.75;20.40;;;6.80;99.90;;;;;;5072906;28;20036;-54
2022/03/15 08:00:20;;;;;;;32.88;21.92;;;6.80;99.90;;;;;;5072899;28;20024;-53
2022/03/15 08:02:45;;;;;;;31.70;21.25;;;6.90;99.90;;;;;;5072682;28;20531;-56
2022/03/15 08:05:11;;;;;;;34.60;21.25;;;6.90;99.90;;;;;;5072831;28;20028;-53
2022/03/15 08:07:37;;;;;;;29.30;21.67;;;7.00;99.90;;;;;;5072589;28;20082;-51
2022/03/15 08:10:07;;;;;;;29.30;19.92;;;6.90;99.90;;;;;;5072646;28;20028;-58
2022/03/15 08:12:34;;;;;;;32.35;20.60;;;6.90;99.90;;;;;;5072457;28;20017;-57
2022/03/15 08:14:59;;;;;;;34.47;21.50;;;6.90;99.90;;;;;;5072615;28;20371;-57
2022/03/15 08:17:25;;;;;;;35.75;19.73;;;7.00;99.90;;;;;;5072573;28;20035;-58
2022/03/15 08:19:52;;;;;;;26.88;19.58;;;7.20;99.90;;;;;;5072331;28;20479;-56
2022/03/15 08:22:18;;;;;;;29.33;19.77;;;7.30;99.90;;;;;;5072326;28;20371;-57
2022/03/15 08:24:43;;;;;;;25.60;17.13;;;7.50;99.90;;;;;;5072237;28;20033;-57
2022/03/15 08:27:09;;;;;;;21.65;17.73;;;7.70;99.90;;;;;;5072424;28;20167;-57
2022/03/15 08:29:35;;;;;;;37.08;18.50;;;7.90;99.90;;;;;;5072177;28;20529;-56
2022/03/15 08:32:01;;;;;;;28.38;19.60;;;8.10;99.90;;;;;;5072169;28;20037;-58
2022/03/15 08:34:28;;;;;;;31.63;20.50;;;8.10;99.90;;;;;;5072050;28;20034;-55
2022/03/15 08:36:53;;;;;;;32.17;19.85;;;8.10;99.90;;;;;;5071910;28;20094;-56
2022/03/15 08:39:22;;;;;;;25.77;17.55;;;8.20;99.90;;;;;;5070574;28;20415;-55
2022/03/15 08:41:51;;;;;;;37.75;17.65;;;8.60;99.90;;;;;;5071792;28;20115;-52
2022/03/15 08:44:18;;;;;;;24.00;15.65;;;8.90;99.90;;;;;;5071890;28;20116;-55
2022/03/15 08:46:48;;;;;;;20.88;15.40;;;9.10;99.90;;;;;;5071777;28;20039;-55
2022/03/15 08:49:15;;;;;;;19.80;15.20;;;9.50;99.90;;;;;;5071827;28;20020;-55
2022/03/15 08:51:41;;;;;;;24.13;14.70;;;9.80;99.20;;;;;;5071694;28;20033;-57
2022/03/15 08:54:07;;;;;;;24.52;16.15;;;9.90;99.80;;;;;;5071739;28;20020;-57
2022/03/15 08:56:33;;;;;;;24.08;15.05;;;10.20;99.70;;;;;;5071723;28;20161;-57
2022/03/15 08:58:59;;;;;;;22.60;15.30;;;10.40;98.60;;;;;;5071677;28;20021;-57
2022/03/15 09:01:24;;;;;;;26.42;15.60;;;10.30;97.90;;;;;;5070270;28;20077;-57
2022/03/15 09:03:50;;;;;;;19.30;15.45;;;10.70;97.40;;;;;;5071200;28;20131;-55
2022/03/15 09:06:16;;;;;;;20.17;15.40;;;11.10;96.80;;;;;;5071612;28;20032;-57
2022/03/15 09:08:41;;;;;;;43.85;15.88;;;11.10;97.50;;;;;;5071291;28;20020;-54
2022/03/15 09:11:08;;;;;;;23.55;14.73;;;10.70;96.40;;;;;;5071708;28;20062;-55
2022/03/15 09:13:35;;;;;;;26.58;13.90;;;10.50;96.60;;;;;;5071342;28;20488;-55
2022/03/15 09:16:01;;;;;;;19.15;14.00;;;10.50;96.40;;;;;;5071684;28;20029;-57
2022/03/15 09:18:27;;;;;;;16.77;13.68;;;10.60;96.60;;;;;;5071588;28;20359;-55
2022/03/15 09:20:53;;;;;;;16.88;13.43;;;10.90;96.10;;;;;;5071256;28;20025;-55
2022/03/15 09:23:20;;;;;;;22.38;13.10;;;11.00;95.80;;;;;;5070033;28;20031;-56
2022/03/15 09:25:47;;;;;;;17.33;12.93;;;11.10;95.50;;;;;;5071281;28;20063;-55
2022/03/15 09:28:13;;;;;;;18.08;10.70;;;10.90;94.60;;;;;;5071599;28;20349;-55
2022/03/15 09:30:39;;;;;;;20.25;16.60;;;10.60;92.90;;;;;;5071322;28;20054;-53
2022/03/15 09:33:05;;;;;;;20.70;11.95;;;10.60;94.00;;;;;;5070796;28;20491;-57
2022/03/15 09:35:31;;;;;;;26.48;11.80;;;10.70;92.80;;;;;;5069667;28;20457;-55
2022/03/15 09:37:57;;;;;;;15.80;12.60;;;10.60;92.80;;;;;;5071303;28;20024;-57
2022/03/15 09:40:25;;;;;;;23.02;12.98;;;10.70;92.70;;;;;;5071405;28;20032;-57
2022/03/15 09:42:58;;;;;;;11.48;9.93;;;10.70;92.80;;;;;;5070513;28;20024;-59
2022/03/15 09:45:28;;;;;;;16.52;12.57;;;10.90;92.40;;;;;;5071256;28;20028;-58
2022/03/15 09:48:01;;;;;;;16.35;11.45;;;10.80;92.50;;;;;;5071078;28;20025;-56
2022/03/15 09:50:27;;;;;;;21.35;12.30;;;10.70;93.10;;;;;;5070901;28;20664;-56
2022/03/15 09:52:58;;;;;;;51.40;13.23;;;10.60;93.20;;;;;;5071283;28;20103;-56
2022/03/15 09:55:25;;;;;;;19.65;12.13;;;10.80;93.40;;;;;;5070883;28;20023;-57
2022/03/15 09:57:52;;;;;;;16.25;12.27;;;10.70;93.10;;;;;;5070977;28;20028;-55
2022/03/15 10:00:18;;;;;;;25.30;13.05;;;10.60;93.10;;;;;;5071103;28;20043;-57
2022/03/15 10:02:44;;;;;;;19.88;12.35;;;10.80;92.90;;;;;;5071107;28;20067;-56
2022/03/15 10:05:11;;;;;;;17.88;11.15;;;10.90;92.50;;;;;;5071118;28;20021;-55
2022/03/15 10:07:38;;;;;;;31.40;11.15;;;10.90;91.90;;;;;;5071053;28;20363;-57
2022/03/15 10:10:06;;;;;;;17.77;10.93;;;11.00;92.00;;;;;;5071188;28;20028;-55
2022/03/15 10:12:32;;;;;;;16.05;12.40;;;11.10;91.10;;;;;;5070882;28;20078;-57
2022/03/15 10:15:13;;;;;;;34.88;16.63;;;11.10;91.50;;;;;;5069817;28;20036;-55
2022/03/15 10:17:53;;;;;;;18.83;11.05;;;11.30;90.40;;;;;;5070962;28;20050;-56
2022/03/15 10:20:20;;;;;;;12.80;10.18;;;11.30;89.40;;;;;;5070971;28;20016;-56
2022/03/15 10:22:56;;;;;;;57.97;26.02;;;11.80;89.90;;;;;;5070956;28;20547;-57
2022/03/15 10:25:24;;;;;;;34.53;17.30;;;11.80;86.00;;;;;;5070978;28;20025;-57
2022/03/15 10:27:57;;;;;;;13.02;8.85;;;11.60;85.10;;;;;;5070791;28;20521;-56
2022/03/15 10:30:24;;;;;;;;;;;11.90;85.60;;;;;;5071389;28;20036;-55
2022/03/15 10:32:51;;;;;;;34.08;18.17;;;12.00;85.60;;;;;;5070806;28;19912;-56
2022/03/15 10:35:22;;;;;;;22.33;13.73;;;12.40;84.70;;;;;;5070877;28;20023;-57
2022/03/15 10:37:49;;;;;;;27.52;14.38;;;12.60;85.50;;;;;;5070571;28;20020;-57
2022/03/15 10:40:15;;;;;;;53.65;23.75;;;12.30;84.50;;;;;;5070759;28;20025;-56
2022/03/15 10:42:42;;;;;;;49.72;19.55;;;12.60;86.40;;;;;;5070711;28;20020;-56
2022/03/15 10:45:19;;;;;;;31.55;15.43;;;13.00;82.70;;;;;;5071185;28;20035;-58
2022/03/15 10:47:53;;;;;;;20.48;12.10;;;13.10;81.90;;;;;;5074227;28;20020;-56
2022/03/15 10:50:20;;;;;;;12.02;9.07;;;13.70;80.20;;;;;;5073341;28;20067;-56
2022/03/15 10:52:46;;;;;;;14.88;9.55;;;14.20;77.70;;;;;;5073007;28;20016;-57
2022/03/15 10:55:15;;;;;;;14.75;10.52;;;14.00;76.20;;;;;;5071674;28;20024;-57
2022/03/15 10:57:48;;;;;;;19.40;11.13;;;13.50;77.90;;;;;;5072552;28;20033;-57
2022/03/15 11:00:15;;;;;;;14.70;9.88;;;13.20;79.00;;;;;;5072890;28;20499;-57
2022/03/15 11:02:42;;;;;;;12.77;9.80;;;13.50;80.30;;;;;;5072825;28;20028;-56
2022/03/15 11:05:08;;;;;;;15.15;10.38;;;14.00;76.60;;;;;;5072732;28;20017;-53
2022/03/15 11:07:42;;;;;;;17.88;10.50;;;14.70;74.60;;;;;;5072756;28;20430;-53
2022/03/15 11:10:12;;;;;;;12.00;9.88;;;15.30;73.10;;;;;;5072779;28;20020;-55
2022/03/15 11:12:52;;;;;;;16.10;9.98;;;16.20;68.90;;;;;;5073401;28;20382;-56
2022/03/15 11:15:19;;;;;;;50.90;12.45;;;17.10;63.90;;;;;;5072922;28;20021;-55
2022/03/15 11:17:48;;;;;;;17.33;10.55;;;17.10;61.80;;;;;;5071437;28;20054;-55
2022/03/15 11:20:15;;;;;;;17.83;9.13;;;18.70;57.00;;;;;;5072711;28;20418;-56
2022/03/15 11:22:43;;;;;;;12.57;9.98;;;19.80;52.50;;;;;;5071775;28;20564;-56
2022/03/15 11:25:14;;;;;;;10.40;9.25;;;19.30;51.50;;;;;;5073502;28;20111;-56
2022/03/15 11:27:59;;;;;;;13.88;9.70;;;19.40;50.70;;;;;;5073236;28;20013;-56
2022/03/15 11:30:25;;;;;;;17.30;9.93;;;19.10;49.30;;;;;;5073413;28;20020;-57
2022/03/15 11:32:53;;;;;;;15.90;10.68;;;18.50;50.80;;;;;;5073322;28;20033;-55
2022/03/15 11:35:22;;;;;;;13.73;10.48;;;17.10;52.00;;;;;;5072107;28;20547;-57
2022/03/15 11:37:49;;;;;;;12.30;9.18;;;16.40;53.80;;;;;;5073359;28;20127;-57
2022/03/15 11:40:18;;;;;;;20.90;9.48;;;16.10;56.00;;;;;;5073182;28;20056;-55
2022/03/15 11:42:48;;;;;;;30.60;11.70;;;16.00;55.30;;;;;;5073232;28;20356;-57
2022/03/15 11:45:24;;;;;;;22.08;10.25;;;16.40;55.20;;;;;;5073283;28;20659;-56
2022/03/15 11:48:22;;;;;;;16.50;10.00;;;16.70;55.30;;;;;;5072970;28;20394;-57
2022/03/15 11:51:04;;;;;;;17.20;10.75;;;17.00;52.90;;;;;;5070418;28;20048;-57
2022/03/15 11:53:36;;;;;;;11.63;8.98;;;16.90;51.80;;;;;;5073004;28;20031;-57
2022/03/15 11:56:32;;;;;;;18.33;9.75;;;16.80;52.10;;;;;;5071488;28;20375;-58
2022/03/15 11:58:58;;;;;;;15.10;9.90;;;16.60;52.90;;;;;;5073011;28;20024;-57
2022/03/15 12:01:25;;;;;;;15.02;9.27;;;16.60;51.70;;;;;;5072864;28;20025;-55
2022/03/15 12:03:56;;;;;;;19.92;9.57;;;16.90;51.70;;;;;;5072653;28;20033;-55
2022/03/15 12:06:27;;;;;;;14.82;10.07;;;16.90;51.40;;;;;;5072874;28;20027;-55
2022/03/15 12:08:56;;;;;;;12.45;9.13;;;16.20;52.80;;;;;;5072596;28;20060;-57
2022/03/15 12:11:36;;;;;;;19.45;10.38;;;16.60;51.70;;;;;;5072749;28;20028;-56
2022/03/15 12:14:13;;;;;;;20.77;10.25;;;16.00;53.40;;;;;;5072470;28;20040;-56
2022/03/15 12:16:50;;;;;;;14.80;10.75;;;16.30;53.00;;;;;;5072296;28;20473;-55
2022/03/15 12:19:27;;;;;;;12.15;10.23;;;16.60;53.30;;;;;;5072570;28;20542;-57
2022/03/15 12:21:57;;;;;;;14.90;9.82;;;17.00;52.50;;;;;;5072222;28;20025;-56
2022/03/15 12:24:34;;;;;;;18.23;10.15;;;16.80;52.20;;;;;;5072606;28;20025;-57
2022/03/15 12:27:06;;;;;;;21.00;10.80;;;16.80;52.50;;;;;;5072404;28;20028;-57
2022/03/15 12:29:33;;;;;;;12.48;10.35;;;16.80;52.60;;;;;;5072227;28;20108;-57
2022/03/15 12:32:12;;;;;;;15.10;10.32;;;17.10;52.90;;;;;;5072357;28;20062;-57
2022/03/15 12:34:42;;;;;;;15.57;9.65;;;17.20;51.20;;;;;;5072170;28;20077;-57
2022/03/15 12:37:07;;;;;;;11.90;9.68;;;16.60;51.60;;;;;;5072131;28;20024;-56